Time;durP1;ratioP1;P1;durP2;ratioP2;P2;SDS_P1;SDS_P2;PMS_P1;PMS_P2;Temp;Humidity;BMP_temperature;BMP_pressure;BME280_temperature;BME280_humidity;BME280_pressure;Samples;Min_cycle;Max_cycle;Signal;HPM_P1;HPM_P2
2022/09/03 00:00:57;;;;;;;3.08;2.88;;;14.60;99.90;;;15.49;67.95;97556.91;5206659;28;20664;-77
2022/09/03 00:03:38;;;;;;;2.95;2.60;;;14.70;99.90;;;15.50;68.58;97561.22;5207142;28;20236;-76
2022/09/03 00:06:16;;;;;;;3.05;2.72;;;14.60;99.90;;;15.44;69.60;97569.63;5200221;28;20574;-77
2022/09/03 00:08:58;;;;;;;2.80;2.60;;;14.50;99.90;;;15.36;69.75;97567.63;5200684;28;20293;-76
2022/09/03 00:11:40;;;;;;;2.65;2.45;;;14.40;99.90;;;15.28;71.09;97569.94;5200901;28;20606;-76
2022/09/03 00:14:21;;;;;;;2.88;2.53;;;14.30;99.90;;;15.28;71.34;97567.34;5199524;28;20225;-76
2022/09/03 00:16:59;;;;;;;2.88;2.67;;;14.30;99.90;;;15.21;71.25;97563.69;5199927;28;20229;-76
2022/09/03 00:19:37;;;;;;;2.80;2.60;;;14.30;99.90;;;15.14;71.23;97558.28;5200651;28;20230;-76
2022/09/03 00:22:16;;;;;;;2.83;2.70;;;14.20;99.90;;;15.14;71.13;97566.91;5197660;28;20337;-76
2022/09/03 00:24:51;;;;;;;2.75;2.55;;;14.20;99.90;;;15.16;71.42;97562.66;5198810;28;20271;-76
2022/09/03 00:27:28;;;;;;;3.45;2.80;;;14.20;99.90;;;15.24;71.51;97563.81;5199924;28;20307;-76
2022/09/03 00:30:05;;;;;;;3.63;2.75;;;14.30;99.90;;;15.30;71.05;97558.84;5198961;28;20228;-76
2022/09/03 00:32:46;;;;;;;2.65;2.20;;;14.30;99.90;;;15.18;70.24;97560.16;5199281;28;20229;-76
2022/09/03 00:35:26;;;;;;;2.60;2.40;;;14.20;99.90;;;15.16;70.67;97549.78;5199721;28;20948;-77
2022/09/03 00:38:00;;;;;;;2.33;2.22;;;14.30;99.90;;;15.19;70.78;97561.91;5200609;28;20275;-76
2022/09/03 00:40:56;;;;;;;2.85;2.65;;;14.30;99.90;;;15.14;71.20;97559.19;5198062;28;20669;-76
2022/09/03 00:43:49;;;;;;;2.90;2.70;;;14.20;99.90;;;15.13;71.51;97554.84;5200403;28;20233;-77
2022/09/03 00:46:28;;;;;;;2.30;2.20;;;14.20;99.90;;;15.08;72.10;97553.84;5199309;28;20287;-76
2022/09/03 00:49:24;;;;;;;2.75;2.58;;;14.10;99.90;;;15.04;71.97;97563.13;5198995;28;20665;-77
2022/09/03 00:52:11;;;;;;;2.88;2.67;;;14.10;99.90;;;15.04;72.40;97563.13;5197978;28;20232;-76
2022/09/03 00:54:59;;;;;;;2.47;2.28;;;14.00;99.90;;;14.99;72.72;97556.06;5196896;28;20237;-76
2022/09/03 00:57:51;;;;;;;2.90;2.70;;;14.00;99.90;;;15.00;72.29;97553.56;5200205;28;20245;-76
2022/09/03 01:00:26;;;;;;;2.63;2.42;;;14.00;99.90;;;14.86;72.49;97550.50;5198354;28;20766;-76
2022/09/03 01:03:07;;;;;;;2.67;2.53;;;14.00;99.90;;;14.88;72.26;97555.72;5200115;28;20688;-77
2022/09/03 01:06:02;;;;;;;2.72;2.63;;;14.00;99.90;;;14.95;72.02;97561.94;5197261;28;20214;-76
2022/09/03 01:09:03;;;;;;;2.53;2.42;;;14.10;99.90;;;14.96;72.50;97559.41;5198140;28;20244;-77
2022/09/03 01:11:50;;;;;;;2.63;2.53;;;14.10;99.90;;;15.00;72.20;97550.97;5198546;28;20718;-76
2022/09/03 01:14:37;;;;;;;2.72;2.60;;;14.20;99.90;;;15.08;72.00;97546.97;5199353;28;20302;-76
2022/09/03 01:17:29;;;;;;;2.83;2.63;;;14.30;99.90;;;15.07;70.49;97552.06;5201885;28;20729;-77
2022/09/03 01:20:17;;;;;;;2.78;2.58;;;14.30;99.90;;;15.15;70.36;97545.47;5202840;28;20258;-77
2022/09/03 01:23:53;;;;;;;2.90;2.55;;;14.40;99.90;;;15.28;69.84;97550.22;5196622;28;20249;-77
2022/09/03 01:26:44;;;;;;;2.95;2.63;;;14.50;99.90;;;15.29;71.10;97553.66;5199128;28;20237;-77
2022/09/03 01:29:27;;;;;;;2.65;2.55;;;14.60;99.90;;;15.28;70.88;97545.06;5203984;28;20194;-77
2022/09/03 01:32:07;;;;;;;2.55;2.35;;;14.50;99.90;;;15.36;70.71;97549.59;5200742;28;20233;-79
2022/09/03 01:34:52;;;;;;;2.30;2.20;;;14.60;99.90;;;15.37;70.99;97535.91;5202057;28;20202;-78
2022/09/03 01:37:40;;;;;;;2.83;2.60;;;14.60;99.90;;;15.37;71.03;97535.91;5203159;28;20201;-77
2022/09/03 01:40:22;;;;;;;2.42;2.33;;;14.50;99.90;;;15.41;70.90;97535.16;5202940;28;20244;-77
2022/09/03 01:43:21;;;;;;;3.05;2.75;;;14.60;99.90;;;15.47;70.41;97535.38;5203145;28;20194;-78
2022/09/03 01:46:01;;;;;;;2.30;2.20;;;14.60;99.90;;;15.53;70.27;97540.72;5202117;28;20748;-79
2022/09/03 01:48:45;;;;;;;2.75;2.58;;;14.70;99.90;;;15.50;70.59;97544.06;5202126;28;20213;-77
2022/09/03 01:51:22;;;;;;;2.95;2.67;;;14.60;99.90;;;15.35;72.19;97550.44;5200929;28;20201;-77
2022/09/03 01:54:23;;;;;;;3.22;2.63;;;14.50;99.90;;;15.29;72.27;97551.97;5201323;28;20742;-78
2022/09/03 01:57:25;;;;;;;3.10;2.67;;;14.50;99.90;;;15.25;72.96;97556.94;5192648;28;20263;-77
2022/09/03 02:00:12;;;;;;;2.65;2.45;;;14.50;99.90;;;15.33;72.65;97546.09;5202566;28;20699;-77
2022/09/03 02:02:49;;;;;;;2.60;2.50;;;14.60;99.90;;;15.44;72.05;97548.16;5200282;28;20193;-77
2022/09/03 02:05:25;;;;;;;2.65;2.45;;;14.70;99.90;;;15.48;72.47;97549.97;5199532;28;20222;-77
2022/09/03 02:08:03;;;;;;;2.60;2.40;;;14.70;99.90;;;15.54;72.66;97551.09;5199603;28;20261;-77
2022/09/03 02:10:42;;;;;;;2.67;2.50;;;14.80;99.90;;;15.55;72.66;97544.22;5203178;28;20231;-77
2022/09/03 02:13:18;;;;;;;2.63;2.42;;;14.80;99.90;;;15.61;72.50;97541.84;5200514;28;20338;-77
2022/09/03 02:15:54;;;;;;;2.58;2.47;;;14.90;99.90;;;15.69;71.73;97545.56;5202696;28;20252;-77
2022/09/03 02:18:33;;;;;;;3.95;2.63;;;14.90;99.90;;;15.71;71.67;97543.06;5203275;28;20679;-78
2022/09/03 02:21:09;;;;;;;2.53;2.42;;;14.90;99.90;;;15.75;71.67;97550.06;5202055;28;20221;-78
2022/09/03 02:23:43;;;;;;;2.80;2.60;;;14.90;99.90;;;15.83;71.33;97548.59;5203254;28;20232;-78
2022/09/03 02:26:20;;;;;;;2.95;2.55;;;15.00;99.90;;;15.79;71.53;97556.16;5201655;28;20249;-78
2022/09/03 02:28:54;;;;;;;2.58;2.38;;;14.80;99.90;;;15.60;72.17;97552.13;5203647;28;20226;-79
2022/09/03 02:31:27;;;;;;;2.80;2.60;;;14.70;99.90;;;15.58;72.75;97557.19;5202300;28;20236;-78
2022/09/03 02:34:02;;;;;;;3.00;2.47;;;14.70;99.90;;;15.56;72.50;97564.00;5204549;28;20293;-78
2022/09/03 02:36:41;;;;;;;2.63;2.45;;;14.70;99.90;;;15.60;72.79;97554.69;5201642;28;20779;-77
2022/09/03 02:39:16;;;;;;;2.45;2.35;;;14.70;99.90;;;15.60;72.99;97555.56;5197409;28;20279;-77
2022/09/03 02:41:54;;;;;;;2.67;2.47;;;14.80;99.90;;;15.55;72.84;97562.25;5202670;28;22051;-78
2022/09/03 02:44:31;;;;;;;2.70;2.20;;;14.80;99.90;;;15.63;72.75;97563.38;5203480;28;20210;-78
2022/09/03 02:47:08;;;;;;;2.40;2.30;;;14.80;99.90;;;15.71;73.36;97559.41;5202338;28;20201;-78
2022/09/03 02:49:44;;;;;;;2.10;2.00;;;15.00;99.90;;;15.75;72.98;97560.34;5201696;28;20205;-78
2022/09/03 02:52:17;;;;;;;2.60;2.38;;;15.00;99.90;;;15.64;72.79;97552.25;5202253;28;23015;-78
2022/09/03 02:54:50;;;;;;;3.13;2.92;;;14.80;99.90;;;15.63;73.06;97558.22;5198644;28;20264;-78
2022/09/03 02:57:23;;;;;;;2.78;2.58;;;14.80;99.90;;;15.62;73.21;97553.00;5202726;28;20260;-77
2022/09/03 02:59:59;;;;;;;2.75;2.53;;;14.80;99.90;;;15.55;73.29;97552.81;5202505;28;20214;-76
2022/09/03 03:02:32;;;;;;;3.17;2.97;;;14.70;99.90;;;15.51;73.14;97555.28;5202986;28;20237;-77
2022/09/03 03:05:09;;;;;;;2.72;2.63;;;14.80;99.90;;;15.68;72.40;97554.16;5200402;28;20222;-78
2022/09/03 03:07:43;;;;;;;2.90;2.70;;;14.90;99.90;;;15.68;70.26;97554.16;5201094;28;20688;-78
2022/09/03 03:10:16;;;;;;;2.53;2.40;;;14.90;99.90;;;15.73;70.30;97549.97;5203914;28;20731;-77
2022/09/03 03:12:49;;;;;;;3.35;2.67;;;15.00;99.90;;;15.76;69.95;97557.81;5204436;28;20198;-78
2022/09/03 03:15:23;;;;;;;2.22;2.13;;;15.00;99.90;;;15.84;70.19;97559.78;5197786;28;20304;-77
2022/09/03 03:17:56;;;;;;;2.78;2.67;;;15.10;99.90;;;15.90;69.80;97570.28;5202877;28;20271;-78
2022/09/03 03:20:31;;;;;;;2.75;2.55;;;15.20;99.90;;;15.98;68.57;97553.34;5201659;28;20252;-78
2022/09/03 03:23:05;;;;;;;4.63;3.92;;;15.20;99.90;;;15.99;68.89;97560.25;5202507;28;20287;-78
2022/09/03 03:25:39;;;;;;;3.78;3.47;;;15.20;99.90;;;16.01;68.97;97568.91;5201005;28;20272;-78
2022/09/03 03:28:17;;;;;;;25.08;23.27;;;15.20;99.90;;;16.02;70.35;97580.97;5203298;28;20228;-77
2022/09/03 03:30:51;;;;;;;7.57;6.97;;;15.20;99.90;;;16.05;70.28;97570.72;5204120;28;20202;-78
2022/09/03 03:33:25;;;;;;;3.22;3.03;;;15.20;99.90;;;16.01;69.96;97575.78;5203115;28;20274;-77
2022/09/03 03:36:05;;;;;;;4.65;4.25;;;15.20;99.90;;;16.02;70.38;97578.38;5204278;28;20219;-77
2022/09/03 03:38:39;;;;;;;4.78;4.43;;;15.20;99.90;;;16.05;70.55;97570.72;5202815;28;20327;-78
2022/09/03 03:41:15;;;;;;;3.30;3.10;;;15.20;99.90;;;16.08;70.36;97565.69;5202583;28;20221;-78
2022/09/03 03:43:53;;;;;;;3.38;3.15;;;15.30;99.90;;;16.08;70.61;97569.97;5205692;28;20213;-78
2022/09/03 03:46:31;;;;;;;3.15;2.90;;;15.20;99.90;;;16.12;70.72;97572.69;5204669;28;20487;-77
2022/09/03 03:49:06;;;;;;;2.95;2.67;;;15.30;99.90;;;16.15;71.28;97571.91;5204751;28;20287;-79
2022/09/03 03:51:40;;;;;;;2.35;2.25;;;15.20;99.90;;;16.07;72.03;97566.50;5207365;28;20232;-78
2022/09/03 03:54:13;;;;;;;2.53;2.33;;;15.20;99.90;;;15.92;71.10;97573.78;5203278;28;20232;-77
2022/09/03 03:56:49;;;;;;;2.50;2.40;;;15.00;99.90;;;15.84;70.99;97567.50;5200927;28;20226;-77
2022/09/03 03:59:28;;;;;;;2.53;2.42;;;15.00;99.90;;;15.78;70.68;97570.75;5200930;28;20221;-78
2022/09/03 04:02:01;;;;;;;3.03;2.78;;;15.00;99.90;;;15.85;70.87;97577.88;5202223;28;20649;-78
2022/09/03 04:04:34;;;;;;;2.50;2.40;;;15.00;99.90;;;15.90;71.79;97581.44;5202105;28;20289;-77
2022/09/03 04:07:09;;;;;;;3.97;2.90;;;15.00;99.90;;;15.78;72.57;97578.50;5200702;28;20616;-77
2022/09/03 04:09:42;;;;;;;2.63;2.53;;;14.90;99.90;;;15.84;72.90;97577.81;5199387;28;20293;-77
2022/09/03 04:12:18;;;;;;;2.90;2.38;;;14.80;99.90;;;15.70;74.09;97585.09;5196807;28;20225;-77
2022/09/03 04:14:51;;;;;;;2.60;2.50;;;14.70;99.90;;;15.59;73.71;97573.53;5197159;28;20288;-77
2022/09/03 04:17:24;;;;;;;3.03;2.83;;;14.70;99.90;;;15.49;74.33;97573.22;5201853;28;20210;-77
2022/09/03 04:19:57;;;;;;;3.28;3.08;;;14.60;99.90;;;15.44;74.32;97568.75;5201169;28;20289;-78
2022/09/03 04:22:32;;;;;;;2.88;2.67;;;14.60;99.90;;;15.51;73.86;97570.72;5197447;28;20201;-77
2022/09/03 04:25:06;;;;;;;3.00;2.80;;;14.70;99.90;;;15.74;73.76;97580.09;5199791;28;20746;-77
2022/09/03 04:27:39;;;;;;;2.95;2.60;;;14.80;99.90;;;15.70;73.06;97567.94;5199509;28;20249;-77
2022/09/03 04:30:13;;;;;;;2.72;2.63;;;14.80;99.90;;;15.62;73.42;97569.34;5197434;28;20618;-77
2022/09/03 04:32:55;;;;;;;2.83;2.63;;;14.70;99.90;;;15.56;73.77;97579.44;5198889;28;20230;-77
2022/09/03 04:35:30;;;;;;;2.95;2.75;;;14.70;99.90;;;15.63;73.70;97581.41;5198063;28;20705;-77
2022/09/03 04:38:05;;;;;;;3.05;2.83;;;14.80;99.90;;;15.58;74.29;97582.97;5201005;28;20308;-77
2022/09/03 04:40:38;;;;;;;3.40;3.10;;;14.70;99.90;;;15.59;74.22;97586.41;5198380;28;20320;-77
2022/09/03 04:43:11;;;;;;;2.97;2.78;;;14.70;99.90;;;15.59;74.64;97582.13;5198546;28;20237;-77
2022/09/03 04:45:44;;;;;;;3.42;3.00;;;14.80;99.90;;;15.62;74.33;97579.66;5200989;28;20261;-77
2022/09/03 04:48:17;;;;;;;3.20;2.90;;;14.80;99.90;;;15.63;72.20;97573.69;5204652;28;20584;-77
2022/09/03 04:50:50;;;;;;;3.40;3.13;;;14.90;99.90;;;15.72;71.97;97571.44;5201744;28;20203;-76
2022/09/03 04:53:25;;;;;;;3.08;2.85;;;15.00;99.90;;;15.83;71.38;97569.22;5197390;28;20233;-77
2022/09/03 04:55:58;;;;;;;3.10;2.90;;;15.20;99.90;;;15.99;70.67;97567.97;5203239;28;20650;-78
2022/09/03 04:58:31;;;;;;;2.80;2.70;;;15.30;99.90;;;16.29;70.56;97573.19;5203627;28;20260;-77
2022/09/03 05:01:08;;;;;;;2.70;2.60;;;15.40;99.90;;;16.18;71.29;97577.16;5201393;28;20317;-78
2022/09/03 05:03:41;;;;;;;3.42;2.88;;;15.30;99.90;;;16.14;71.92;97568.47;5202241;28;20266;-77
2022/09/03 05:06:15;;;;;;;3.10;2.90;;;15.30;99.90;;;16.16;72.14;97579.69;5197897;28;20662;-77
2022/09/03 05:08:51;;;;;;;5.88;3.35;;;15.40;99.90;;;16.21;72.24;97572.97;5197970;28;20297;-75
2022/09/03 05:11:27;;;;;;;3.15;2.95;;;15.40;99.90;;;16.25;72.18;97567.91;5203635;28;20197;-77
2022/09/03 05:14:01;;;;;;;3.17;2.88;;;15.40;99.90;;;16.15;72.93;97577.94;5201497;28;20738;-78
2022/09/03 05:16:34;;;;;;;3.40;3.10;;;15.30;99.90;;;16.09;73.83;97580.34;5200687;28;20221;-77
2022/09/03 05:19:08;;;;;;;3.20;2.90;;;15.20;99.90;;;16.20;72.07;97580.66;5200808;28;20285;-77
2022/09/03 05:21:43;;;;;;;2.90;2.75;;;15.20;99.90;;;16.14;72.51;97578.78;5201530;28;20310;-76
2022/09/03 05:24:17;;;;;;;2.60;2.50;;;15.20;99.90;;;16.13;72.57;97587.31;5202743;28;20233;-77
2022/09/03 05:26:50;;;;;;;2.90;2.70;;;15.20;99.90;;;16.15;73.05;97575.34;5202879;28;20217;-76
2022/09/03 05:29:24;;;;;;;3.10;2.80;;;15.30;99.90;;;16.22;72.91;97573.84;5201545;28;20230;-77
2022/09/03 05:31:57;;;;;;;2.70;2.50;;;15.30;99.90;;;16.26;73.10;97565.38;5202656;28;20198;-77
2022/09/03 05:34:31;;;;;;;2.85;2.70;;;15.40;99.90;;;16.29;73.18;97572.34;5202977;28;20226;-77
2022/09/03 05:37:04;;;;;;;2.70;2.50;;;15.40;99.90;;;16.33;72.76;97576.75;5202693;28;20283;-77
2022/09/03 05:39:39;;;;;;;2.70;2.50;;;15.40;99.90;;;16.28;73.15;97579.19;5199372;28;20661;-78
2022/09/03 05:42:13;;;;;;;2.80;2.60;;;15.30;99.90;;;16.20;73.29;97572.94;5202362;28;20216;-77
2022/09/03 05:44:48;;;;;;;3.20;2.90;;;15.30;99.90;;;16.21;73.33;97570.38;5198627;28;20241;-76
2022/09/03 05:47:21;;;;;;;2.85;2.65;;;15.30;99.90;;;16.17;73.23;97567.69;5198558;28;20217;-77
2022/09/03 05:49:54;;;;;;;3.28;2.97;;;15.30;99.90;;;16.16;73.30;97571.06;5198697;28;20265;-77
2022/09/03 05:52:28;;;;;;;3.13;2.95;;;15.40;99.90;;;16.20;73.15;97576.38;5201179;28;20244;-76
2022/09/03 05:55:02;;;;;;;3.92;2.65;;;15.40;99.90;;;16.23;72.80;97573.03;5201401;28;20237;-77
2022/09/03 05:57:36;;;;;;;2.83;2.53;;;15.40;99.90;;;16.32;73.10;97583.59;5198473;28;20271;-77
2022/09/03 06:00:11;;;;;;;3.05;2.75;;;15.50;99.90;;;16.41;72.40;97580.44;5201169;28;20291;-77
2022/09/03 06:02:50;;;;;;;3.33;3.03;;;15.50;99.90;;;16.48;71.95;97592.66;5199663;28;20198;-77
2022/09/03 06:05:23;;;;;;;2.95;2.75;;;15.60;99.90;;;16.53;71.88;97593.69;5200659;28;20881;-77
2022/09/03 06:07:56;;;;;;;3.08;2.80;;;15.70;99.90;;;16.64;71.71;97588.84;5200262;28;20244;-77
2022/09/03 06:10:31;;;;;;;2.95;2.70;;;15.80;99.90;;;16.66;72.29;97594.94;5198854;28;20728;-77
2022/09/03 06:13:12;;;;;;;3.58;3.28;;;15.90;99.90;;;16.71;72.34;97584.72;5194410;28;20210;-77
2022/09/03 06:15:46;;;;;;;3.35;3.10;;;16.00;99.90;;;16.87;71.22;97589.53;5195150;28;20230;-76
2022/09/03 06:18:19;;;;;;;3.13;2.92;;;16.10;99.90;;;17.03;70.31;97588.25;5198748;28;20674;-77
2022/09/03 06:20:55;;;;;;;3.58;3.28;;;16.30;99.90;;;17.17;69.28;97591.19;5199633;28;21065;-77
2022/09/03 06:23:30;;;;;;;2.75;2.55;;;16.40;99.90;;;17.29;68.56;97582.06;5202041;28;20240;-77
2022/09/03 06:26:08;;;;;;;2.83;2.63;;;16.60;99.90;;;17.42;68.13;97588.41;5201656;28;20255;-78
2022/09/03 06:28:44;;;;;;;3.15;2.95;;;16.70;99.90;;;17.56;67.65;97592.22;5199816;28;20201;-76
2022/09/03 06:31:19;;;;;;;2.80;2.60;;;16.90;99.90;;;17.74;67.50;97594.41;5198560;28;20525;-78
2022/09/03 06:33:53;;;;;;;3.50;3.30;;;17.00;99.90;;;17.75;66.20;97598.72;5198386;28;20201;-77
2022/09/03 06:36:27;;;;;;;3.25;3.05;;;17.00;99.90;;;17.85;66.42;97594.69;5201999;28;20251;-77
2022/09/03 06:39:00;;;;;;;2.92;2.72;;;17.00;99.90;;;17.80;67.13;97596.31;5202109;28;20234;-77
2022/09/03 06:41:35;;;;;;;3.30;3.00;;;17.00;99.90;;;17.90;67.39;97608.59;5201073;28;20222;-78
2022/09/03 06:44:11;;;;;;;6.18;3.38;;;17.10;99.90;;;17.94;68.23;97605.25;5200231;28;20224;-77
2022/09/03 06:46:46;;;;;;;5.15;3.80;;;17.10;99.90;;;17.90;68.43;97607.72;5198053;28;20222;-76
2022/09/03 06:49:19;;;;;;;3.95;3.60;;;17.00;99.90;;;17.85;68.09;97605.03;5201259;28;20631;-78
2022/09/03 06:51:52;;;;;;;4.97;3.58;;;17.00;99.90;;;17.82;67.32;97604.94;5199593;28;20221;-77
2022/09/03 06:54:25;;;;;;;3.28;3.08;;;17.00;99.90;;;17.90;66.96;97603.44;5202322;28;20248;-78
2022/09/03 06:57:00;;;;;;;3.97;3.45;;;17.10;99.90;;;17.99;66.75;97601.06;5199694;28;20320;-78
2022/09/03 06:59:33;;;;;;;4.00;3.50;;;17.20;99.90;;;18.08;67.54;97602.97;5201656;28;20274;-79
2022/09/03 07:02:07;;;;;;;4.00;3.70;;;17.30;99.90;;;18.06;67.80;97593.47;5199572;28;20768;-78
2022/09/03 07:04:40;;;;;;;3.28;3.08;;;17.20;99.90;;;18.11;67.45;97595.28;5200965;28;20198;-78
2022/09/03 07:07:17;;;;;;;4.57;3.60;;;17.30;99.90;;;18.20;67.65;97592.06;5203829;28;20198;-79
2022/09/03 07:09:51;;;;;;;3.67;3.38;;;17.50;99.90;;;18.51;66.38;97597.91;5202698;28;20243;-78
2022/09/03 07:12:26;;;;;;;4.13;3.20;;;17.70;99.90;;;19.16;64.86;97601.00;5203715;28;20228;-79
2022/09/03 07:14:59;;;;;;;3.65;3.35;;;18.30;99.90;;;19.76;62.61;97599.50;5201244;28;20311;-78
2022/09/03 07:17:32;;;;;;;3.75;3.45;;;18.80;99.90;;;19.89;62.10;97604.06;5203260;28;20209;-78
2022/09/03 07:20:06;;;;;;;3.92;3.17;;;19.00;99.90;;;19.72;62.35;97598.59;5204301;28;20225;-79
2022/09/03 07:22:40;;;;;;;3.45;3.17;;;19.00;99.90;;;19.88;62.01;97599.69;5204332;28;20221;-77
2022/09/03 07:25:13;;;;;;;3.92;3.60;;;19.00;99.90;;;20.06;61.25;97599.13;5203803;28;20249;-80
2022/09/03 07:27:49;;;;;;;3.40;3.13;;;19.20;99.90;;;20.14;60.92;97597.50;5204041;28;20637;-79
2022/09/03 07:30:25;;;;;;;3.40;3.20;;;19.30;99.90;;;19.98;61.97;97605.91;5203663;28;20696;-79
2022/09/03 07:33:01;;;;;;;3.60;3.30;;;19.20;99.90;;;19.91;62.24;97597.13;5203322;28;20201;-77
2022/09/03 07:35:36;;;;;;;3.45;3.17;;;19.00;99.90;;;19.94;62.06;97602.38;5201458;28;20268;-77
2022/09/03 07:38:10;;;;;;;3.40;3.13;;;19.10;99.90;;;20.06;61.70;97604.31;5205369;28;20209;-79
2022/09/03 07:40:43;;;;;;;3.70;3.40;;;19.20;99.90;;;20.01;61.88;97595.59;5201186;28;20650;-77
2022/09/03 07:43:19;;;;;;;3.53;3.30;;;19.20;99.90;;;19.99;62.02;97607.66;5201825;28;20229;-80
2022/09/03 07:45:53;;;;;;;3.22;2.95;;;19.10;99.90;;;20.01;62.40;97595.59;5205323;28;20249;-78
2022/09/03 07:48:27;;;;;;;3.65;3.35;;;19.10;99.90;;;20.00;62.29;97599.00;5199807;28;20228;-77
2022/09/03 07:51:01;;;;;;;3.85;3.55;;;19.20;99.90;;;20.10;62.12;97594.84;5198669;28;20240;-78
2022/09/03 07:53:35;;;;;;;3.40;3.20;;;19.20;99.90;;;20.12;62.40;97595.75;5197319;28;20213;-78
2022/09/03 07:56:11;;;;;;;4.03;3.58;;;19.20;99.90;;;20.07;62.21;97600.88;5198180;28;20241;-79
2022/09/03 07:58:46;;;;;;;3.40;3.20;;;19.20;99.90;;;20.14;62.11;97589.72;5201164;28;20861;-78
2022/09/03 08:01:22;;;;;;;3.85;3.55;;;19.20;99.90;;;20.25;61.70;97600.25;5197150;28;20323;-78
2022/09/03 08:03:56;;;;;;;3.75;3.45;;;19.20;99.90;;;20.08;62.36;97600.00;5200959;28;20227;-77
2022/09/03 08:06:30;;;;;;;3.80;3.50;;;19.10;99.90;;;20.06;62.62;97606.00;5198896;28;20237;-78
2022/09/03 08:09:06;;;;;;;3.72;3.42;;;19.10;99.90;;;20.16;62.60;97615.69;5201609;28;20672;-79
2022/09/03 08:11:42;;;;;;;4.10;3.80;;;19.20;99.90;;;20.21;62.82;97608.88;5196470;28;20233;-78
2022/09/03 08:14:17;;;;;;;4.20;3.55;;;19.30;99.90;;;20.28;62.68;97605.50;5197650;28;20560;-77
2022/09/03 08:16:51;;;;;;;3.95;3.63;;;19.30;99.90;;;20.40;62.39;97605.69;5203853;28;20226;-78
2022/09/03 08:19:24;;;;;;;4.28;3.78;;;19.50;99.90;;;20.41;62.15;97615.22;5201197;28;20241;-78
2022/09/03 08:21:57;;;;;;;4.30;3.67;;;19.50;99.90;;;20.49;62.27;97617.94;5199962;28;20229;-77
2022/09/03 08:24:32;;;;;;;3.47;3.17;;;19.50;99.90;;;20.56;61.85;97617.19;5202793;28;20252;-77
2022/09/03 08:27:05;;;;;;;3.70;3.38;;;19.60;99.90;;;20.62;62.28;97616.38;5200670;28;20308;-77
2022/09/03 08:29:40;;;;;;;3.50;3.30;;;19.70;99.90;;;20.74;62.39;97620.88;5202445;28;20254;-77
2022/09/03 08:32:14;;;;;;;3.40;3.20;;;19.90;99.90;;;20.86;62.27;97613.22;5201488;28;20227;-78
2022/09/03 08:34:47;;;;;;;3.55;3.28;;;20.00;99.90;;;20.92;61.26;97615.94;5201752;28;20210;-77
2022/09/03 08:37:26;;;;;;;3.75;3.45;;;20.10;99.90;;;21.05;61.31;97610.00;5202719;28;20652;-77
2022/09/03 08:40:04;;;;;;;3.50;3.22;;;20.20;99.90;;;21.02;61.30;97606.50;5203120;28;20209;-78
2022/09/03 08:42:50;;;;;;;4.47;3.50;;;20.30;99.90;;;21.14;60.27;97607.50;5203775;28;20213;-78
2022/09/03 08:45:25;;;;;;;3.40;3.08;;;20.40;99.90;;;21.18;60.16;97615.38;5203360;28;20608;-77
2022/09/03 08:48:05;;;;;;;3.85;3.55;;;20.20;99.90;;;21.40;59.87;97617.34;5203620;28;20562;-77
2022/09/03 08:50:44;;;;;;;3.42;3.13;;;20.40;99.90;;;21.53;59.44;97620.94;5204313;28;20668;-77
2022/09/03 08:53:25;;;;;;;3.72;3.33;;;20.50;99.90;;;21.67;59.47;97615.88;5204057;28;20248;-77
2022/09/03 08:56:07;;;;;;;4.03;3.63;;;20.70;99.90;;;21.75;58.68;97614.22;5202644;28;20278;-76
2022/09/03 08:58:42;;;;;;;4.03;3.70;;;20.80;99.90;;;21.89;58.75;97619.53;5205307;28;20249;-77
2022/09/03 09:01:31;;;;;;;3.63;3.42;;;21.00;99.40;;;22.17;57.25;97620.63;5199019;28;20197;-77
2022/09/03 09:04:22;;;;;;;3.97;3.60;;;21.20;98.80;;;22.07;57.63;97618.84;5200868;28;20206;-76
2022/09/03 09:07:05;;;;;;;3.63;3.33;;;21.10;99.10;;;22.14;58.01;97615.41;5206602;28;20253;-77
2022/09/03 09:09:48;;;;;;;3.47;3.25;;;21.10;99.30;;;22.32;57.99;97626.00;5199734;28;20708;-77
2022/09/03 09:12:33;;;;;;;3.72;3.42;;;21.30;99.20;;;22.28;58.63;97624.22;5197177;28;20293;-77
2022/09/03 09:15:32;;;;;;;3.78;3.38;;;21.30;99.70;;;22.27;58.71;97622.47;5196578;28;20681;-77
2022/09/03 09:18:16;;;;;;;3.47;3.22;;;21.30;99.80;;;22.37;58.22;97628.59;5198979;28;20208;-77
2022/09/03 09:20:53;;;;;;;4.05;3.38;;;21.40;99.40;;;22.46;58.26;97629.56;5199628;28;20681;-77
2022/09/03 09:23:31;;;;;;;3.63;3.30;;;21.50;99.60;;;22.39;60.10;97627.75;5199592;28;20352;-77
2022/09/03 09:26:10;;;;;;;3.40;3.10;;;21.50;99.90;;;22.37;59.39;97633.81;5198893;28;20299;-77
2022/09/03 09:28:46;;;;;;;3.50;3.30;;;21.40;99.90;;;22.48;58.90;97634.75;5200145;28;20205;-77
2022/09/03 09:31:23;;;;;;;3.50;3.30;;;21.60;99.70;;;22.79;58.27;97633.22;5199306;28;20237;-76
2022/09/03 09:34:05;;;;;;;3.42;3.13;;;21.90;99.60;;;22.84;58.51;97638.44;5199781;28;20209;-77
2022/09/03 09:36:46;;;;;;;3.55;3.25;;;22.00;99.00;;;23.15;56.45;97631.66;5199913;28;20712;-77
2022/09/03 09:39:21;;;;;;;3.60;3.40;;;22.20;98.00;;;23.34;55.79;97629.97;5195611;28;20221;-77
2022/09/03 09:42:00;;;;;;;3.65;3.30;;;22.40;97.80;;;23.60;54.53;97643.06;5196792;28;20286;-77
2022/09/03 09:44:33;;;;;;;3.60;3.30;;;22.60;97.00;;;23.70;54.53;97630.94;5199173;28;20289;-76
2022/09/03 09:47:10;;;;;;;3.55;3.25;;;22.70;96.90;;;23.86;54.70;97626.59;5200122;28;20225;-77
2022/09/03 09:49:54;;;;;;;4.07;3.85;;;22.90;96.70;;;23.76;53.61;97621.38;5197184;28;20828;-77
2022/09/03 09:52:30;;;;;;;3.55;3.25;;;23.00;95.90;;;23.96;53.85;97612.69;5199865;28;20681;-78
2022/09/03 09:55:10;;;;;;;3.45;3.15;;;23.20;95.90;;;24.24;53.19;97598.75;5196979;28;20287;-78
2022/09/03 09:57:43;;;;;;;3.20;3.00;;;23.60;95.20;;;24.49;52.49;97614.41;5204144;28;20205;-76
2022/09/03 10:00:18;;;;;;;3.22;3.00;;;23.70;95.10;;;24.65;52.04;97616.09;5197813;28;20194;-77
2022/09/03 10:02:54;;;;;;;3.13;2.92;;;24.00;94.40;;;25.11;49.45;97613.31;5198975;28;20220;-76
2022/09/03 10:05:32;;;;;;;3.13;2.92;;;24.40;92.90;;;25.47;47.44;97624.50;5197359;28;20225;-78
2022/09/03 10:08:19;;;;;;;3.33;3.10;;;24.70;91.30;;;25.55;47.13;97627.06;5201564;28;20634;-77
2022/09/03 10:10:53;;;;;;;3.33;3.13;;;24.90;91.20;;;25.55;47.02;97621.81;5201007;28;20237;-77
2022/09/03 10:13:34;;;;;;;3.30;3.00;;;24.70;91.00;;;25.57;46.26;97615.69;5199297;28;20193;-78
2022/09/03 10:16:21;;;;;;;3.40;3.10;;;24.70;90.30;;;25.87;45.16;97612.91;5198857;28;20665;-77
2022/09/03 10:19:04;;;;;;;3.28;3.03;;;24.90;90.00;;;26.05;44.80;97608.41;5197611;28;20197;-77
2022/09/03 10:21:47;;;;;;;3.00;2.80;;;25.10;89.40;;;26.19;44.25;97604.81;5198271;28;20324;-77
2022/09/03 10:24:41;;;;;;;2.45;2.35;;;25.40;87.70;;;26.30;44.38;97600.31;5202593;28;20252;-77
2022/09/03 10:27:17;;;;;;;3.05;2.83;;;25.50;87.70;;;26.39;43.77;97602.84;5199754;28;20220;-78
2022/09/03 10:29:51;;;;;;;2.88;2.67;;;25.70;86.70;;;26.37;43.91;97604.59;5204431;28;20220;-77
2022/09/03 10:32:37;;;;;;;3.20;2.90;;;25.70;86.70;;;26.16;45.13;97599.59;5198910;28;20196;-78
2022/09/03 10:35:27;;;;;;;3.03;2.83;;;25.30;88.80;;;26.21;45.09;97603.00;5202000;28;20225;-79
2022/09/03 10:38:10;;;;;;;3.20;3.00;;;25.30;89.10;;;26.25;44.91;97599.50;5202462;28;20201;-78
2022/09/03 10:40:59;;;;;;;3.22;2.90;;;25.20;89.00;;;26.06;44.98;97604.88;5201088;28;20460;-78
2022/09/03 10:44:01;;;;;;;2.70;2.50;;;25.10;88.80;;;25.84;45.96;97595.50;5204426;28;20303;-77
2022/09/03 10:46:49;;;;;;;2.88;2.67;;;24.90;89.80;;;25.91;45.82;97589.31;5198750;28;20278;-77
2022/09/03 10:49:50;;;;;;;2.90;2.70;;;25.00;89.60;;;26.02;45.51;97591.84;5200294;28;20213;-77
2022/09/03 10:52:32;;;;;;;2.92;2.83;;;25.00;89.30;;;26.03;45.38;97583.97;5198291;28;20279;-77
2022/09/03 10:55:19;;;;;;;3.28;2.97;;;25.00;89.40;;;25.98;45.58;97585.78;5200988;28;20304;-78
2022/09/03 10:58:02;;;;;;;3.30;3.10;;;25.00;89.80;;;25.96;46.58;97591.91;5201270;28;20229;-78
2022/09/03 11:00:47;;;;;;;2.63;2.42;;;25.10;90.20;;;26.17;46.29;97596.06;5202427;28;20630;-79
2022/09/03 11:03:43;;;;;;;2.80;2.60;;;25.20;90.30;;;26.10;47.07;97591.75;5204196;28;20650;-78
2022/09/03 11:06:24;;;;;;;2.67;2.58;;;25.10;90.40;;;26.13;47.08;97594.38;5198714;28;20307;-78